Time;durP1;ratioP1;P1;durP2;ratioP2;P2;SDS_P1;SDS_P2;PMS_P1;PMS_P2;Temp;Humidity;BMP_temperature;BMP_pressure;BME280_temperature;BME280_humidity;BME280_pressure;Samples;Min_cycle;Max_cycle;Signal;HPM_P1;HPM_P2
2022/06/11 00:00:55;;;;;;;2.60;2.10;;;23.60;53.10;;;;;;5097931;28;20016;-47
2022/06/11 00:03:21;;;;;;;3.38;2.28;;;23.60;53.10;;;;;;5098185;28;20467;-43
2022/06/11 00:05:49;;;;;;;3.13;2.10;;;23.60;53.10;;;;;;5097628;28;20020;-46
2022/06/11 00:08:15;;;;;;;3.67;2.42;;;23.60;53.10;;;;;;5097843;28;20012;-43
2022/06/11 00:10:42;;;;;;;3.30;2.50;;;23.60;53.10;;;;;;5096076;28;20012;-42
2022/06/11 00:13:08;;;;;;;3.78;2.47;;;23.60;53.10;;;;;;5096637;28;20020;-47
2022/06/11 00:15:33;;;;;;;4.30;2.03;;;23.60;53.10;;;;;;5096077;28;20038;-45
2022/06/11 00:17:59;;;;;;;2.72;2.10;;;23.60;53.20;;;;;;5096534;28;20497;-47
2022/06/11 00:20:28;;;;;;;3.22;2.20;;;23.60;53.10;;;;;;5097272;28;20024;-48
2022/06/11 00:22:54;;;;;;;2.65;2.13;;;23.60;53.20;;;;;;5100872;28;20683;-44
2022/06/11 00:25:20;;;;;;;2.63;1.98;;;23.60;53.20;;;;;;5100202;28;20028;-47
2022/06/11 00:27:47;;;;;;;2.70;2.00;;;23.60;53.20;;;;;;5082958;28;20032;-50
2022/06/11 00:30:13;;;;;;;2.30;2.10;;;23.60;53.20;;;;;;5100608;28;20107;-50
2022/06/11 00:32:40;;;;;;;2.88;2.22;;;23.60;53.20;;;;;;5101271;28;20020;-48
2022/06/11 00:35:07;;;;;;;2.58;2.05;;;23.60;53.20;;;;;;5101345;28;20032;-47
2022/06/11 00:37:33;;;;;;;3.00;2.20;;;23.60;53.20;;;;;;5100168;28;20050;-49
2022/06/11 00:39:59;;;;;;;2.85;2.10;;;23.60;53.20;;;;;;5099161;28;20445;-47
2022/06/11 00:42:36;;;;;;;2.40;2.20;;;23.60;53.20;;;;;;5099336;28;20016;-46
2022/06/11 00:45:23;;;;;;;2.58;2.05;;;23.60;53.20;;;;;;5098975;28;20016;-47
2022/06/11 00:47:55;;;;;;;3.03;2.08;;;23.60;53.50;;;;;;5098976;28;20021;-45
2022/06/11 00:50:27;;;;;;;4.05;2.22;;;23.60;53.20;;;;;;5081522;28;20016;-48
2022/06/11 00:52:55;;;;;;;2.53;2.25;;;23.60;53.20;;;;;;5098141;28;20023;-45
2022/06/11 00:55:30;;;;;;;3.47;2.42;;;23.60;53.10;;;;;;5081603;28;20018;-49
2022/06/11 00:58:00;;;;;;;3.30;2.20;;;23.60;53.20;;;;;;5081106;28;20035;-49
2022/06/11 01:00:32;;;;;;;2.13;1.92;;;23.60;53.20;;;;;;5098250;28;20008;-43
2022/06/11 01:02:59;;;;;;;2.47;2.00;;;23.60;53.20;;;;;;5098629;28;20016;-49
2022/06/11 01:05:28;;;;;;;4.32;2.80;;;23.60;53.20;;;;;;5098951;28;20023;-48
2022/06/11 01:08:08;;;;;;;2.67;2.10;;;23.60;53.20;;;;;;5099212;28;20020;-48
2022/06/11 01:10:53;;;;;;;2.28;2.00;;;23.50;53.10;;;;;;5098261;28;20363;-46
2022/06/11 01:13:51;;;;;;;2.50;2.03;;;23.50;53.20;;;;;;5101257;28;20028;-49
2022/06/11 01:16:35;;;;;;;2.42;2.05;;;23.60;53.30;;;;;;5075118;28;20081;-46
2022/06/11 01:19:04;;;;;;;3.22;2.30;;;23.50;53.20;;;;;;5101723;28;20417;-47
2022/06/11 01:21:48;;;;;;;2.60;2.10;;;23.60;53.70;;;;;;5101606;28;20008;-49
2022/06/11 01:24:35;;;;;;;2.95;2.30;;;23.60;53.20;;;;;;5101307;28;20061;-49
2022/06/11 01:27:10;;;;;;;3.03;2.10;;;23.60;53.20;;;;;;5100071;28;20453;-51
2022/06/11 01:29:46;;;;;;;2.40;2.00;;;23.50;53.10;;;;;;5099521;28;20075;-50
2022/06/11 01:32:57;;;;;;;2.75;2.20;;;23.60;53.20;;;;;;5098442;28;20016;-51
2022/06/11 01:35:45;;;;;;;2.33;2.05;;;23.50;53.20;;;;;;5098709;28;20016;-49
2022/06/11 01:38:25;;;;;;;2.22;1.90;;;23.50;53.10;;;;;;5097508;28;20053;-47
2022/06/11 01:40:55;;;;;;;3.03;2.00;;;23.50;53.10;;;;;;5098914;28;20020;-48
2022/06/11 01:43:25;;;;;;;2.50;2.00;;;23.50;53.10;;;;;;5098716;28;20028;-52
2022/06/11 01:45:51;;;;;;;2.83;2.05;;;23.50;53.10;;;;;;5099499;28;20040;-50
2022/06/11 01:48:21;;;;;;;2.33;1.80;;;23.50;53.10;;;;;;5098329;28;20024;-46
2022/06/11 01:51:01;;;;;;;2.47;1.90;;;23.50;53.10;;;;;;5096977;28;20501;-50
2022/06/11 01:53:32;;;;;;;2.05;1.77;;;23.50;53.00;;;;;;5096915;28;20050;-50
2022/06/11 01:56:16;;;;;;;3.53;1.92;;;23.50;53.10;;;;;;5096567;28;20020;-48
2022/06/11 01:59:06;;;;;;;3.10;2.08;;;23.50;53.00;;;;;;5097536;28;20027;-46
2022/06/11 02:01:44;;;;;;;3.15;2.08;;;23.50;53.00;;;;;;5080586;28;20535;-42
2022/06/11 02:04:35;;;;;;;2.05;1.80;;;23.50;53.00;;;;;;5097033;28;20016;-44
2022/06/11 02:07:13;;;;;;;2.47;1.90;;;23.50;53.00;;;;;;5099836;28;20058;-43
2022/06/11 02:10:28;;;;;;;2.78;1.95;;;23.50;53.00;;;;;;5099416;28;20113;-42
2022/06/11 02:13:39;;;;;;;2.40;1.90;;;23.50;53.00;;;;;;5002068;28;20126;-44
2022/06/11 02:16:13;;;;;;;2.58;1.90;;;23.50;53.00;;;;;;5018415;28;20022;-43
2022/06/11 02:18:39;;;;;;;2.22;1.88;;;23.50;52.90;;;;;;5017247;28;20049;-43
2022/06/11 02:21:11;;;;;;;2.97;2.00;;;23.50;52.90;;;;;;5016984;28;20478;-50
2022/06/11 02:23:49;;;;;;;2.00;1.70;;;23.50;52.90;;;;;;5000570;28;20049;-49
2022/06/11 02:26:25;;;;;;;2.97;1.90;;;23.50;52.90;;;;;;5000373;28;20041;-48
2022/06/11 02:28:51;;;;;;;2.58;2.20;;;23.50;52.90;;;;;;5016239;28;20106;-48
2022/06/11 02:31:19;;;;;;;2.50;1.98;;;23.50;52.80;;;;;;4999944;28;20489;-45
2022/06/11 02:33:45;;;;;;;2.60;1.95;;;23.50;52.80;;;;;;5016301;28;20034;-48
2022/06/11 02:36:11;;;;;;;2.47;1.90;;;23.50;52.80;;;;;;4983616;28;20072;-49
2022/06/11 02:38:37;;;;;;;2.75;1.83;;;23.50;52.80;;;;;;5017026;28;20022;-46
2022/06/11 02:41:17;;;;;;;1.98;1.67;;;23.50;52.80;;;;;;5015753;28;20022;-47
2022/06/11 02:43:43;;;;;;;2.87;1.80;;;23.50;52.80;;;;;;4985931;28;20018;-47
2022/06/11 02:48:53;;;;;;;2.65;1.90;;;23.40;52.70;;;;;;5097520;28;20040;-51
2022/06/11 02:51:23;;;;;;;3.67;1.85;;;23.40;52.70;;;;;;5080400;28;20031;-49
2022/06/11 02:53:49;;;;;;;;;;;23.50;52.70;;;;;;5098702;28;20474;-49
2022/06/11 02:56:15;;;;;;;3.00;1.88;;;23.50;52.60;;;;;;5097875;28;20385;-44
2022/06/11 02:58:41;;;;;;;3.72;1.65;;;23.50;52.70;;;;;;5079783;28;20012;-50
2022/06/11 03:01:08;;;;;;;2.05;1.70;;;23.40;52.60;;;;;;5099253;28;20462;-49
2022/06/11 03:03:35;;;;;;;3.13;2.15;;;23.50;52.60;;;;;;5099565;28;20020;-53
2022/06/11 03:06:01;;;;;;;2.05;1.70;;;23.50;52.60;;;;;;5100653;28;20028;-49
2022/06/11 03:08:27;;;;;;;2.95;2.15;;;23.40;52.60;;;;;;5099492;28;20054;-49
2022/06/11 03:10:57;;;;;;;2.45;1.80;;;23.50;52.60;;;;;;5080141;28;20024;-45
2022/06/11 03:13:26;;;;;;;2.38;1.90;;;23.40;52.60;;;;;;5096632;28;20030;-46
2022/06/11 03:15:52;;;;;;;3.13;2.00;;;23.40;52.50;;;;;;5097055;28;20097;-46
2022/06/11 03:18:18;;;;;;;2.25;1.80;;;23.40;52.50;;;;;;5099816;28;20032;-45
2022/06/11 03:20:44;;;;;;;2.95;1.77;;;23.50;52.50;;;;;;5099754;28;20016;-47
2022/06/11 03:23:11;;;;;;;1.98;1.70;;;23.40;52.50;;;;;;5099543;28;20036;-49
2022/06/11 03:25:37;;;;;;;2.30;1.60;;;23.50;52.50;;;;;;5101253;28;20474;-46
2022/06/11 03:28:11;;;;;;;2.00;1.80;;;23.50;52.40;;;;;;5084818;28;20030;-45
2022/06/11 03:30:37;;;;;;;2.78;1.80;;;23.50;52.40;;;;;;5101360;28;20028;-43
2022/06/11 03:33:03;;;;;;;2.78;1.60;;;23.40;52.40;;;;;;5100335;28;20024;-48
2022/06/11 03:35:30;;;;;;;2.05;1.70;;;23.40;52.40;;;;;;5098427;28;20023;-44
2022/06/11 03:37:56;;;;;;;3.92;1.90;;;23.40;52.40;;;;;;5100365;28;20048;-48
2022/06/11 03:40:22;;;;;;;2.72;1.73;;;23.40;52.40;;;;;;5101288;28;20041;-46
2022/06/11 03:42:48;;;;;;;3.17;1.80;;;23.40;52.30;;;;;;5100156;28;20382;-46
2022/06/11 03:45:14;;;;;;;2.00;1.50;;;23.40;52.30;;;;;;5101069;28;20091;-46
2022/06/11 03:47:40;;;;;;;2.35;1.55;;;23.40;52.30;;;;;;5102624;28;20066;-49
2022/06/11 03:50:08;;;;;;;1.75;1.50;;;23.40;52.20;;;;;;5101736;28;20016;-50
2022/06/11 03:52:35;;;;;;;2.20;1.70;;;23.40;52.30;;;;;;5099735;28;20536;-47
2022/06/11 03:55:02;;;;;;;2.30;1.60;;;23.40;52.20;;;;;;5099825;28;20008;-44
2022/06/11 03:57:27;;;;;;;2.22;1.58;;;23.40;52.20;;;;;;5100443;28;20027;-48
2022/06/11 03:59:53;;;;;;;2.33;1.58;;;23.40;52.10;;;;;;5099673;28;20016;-44
2022/06/11 04:02:19;;;;;;;3.05;1.60;;;23.40;52.10;;;;;;5100531;28;20005;-46
2022/06/11 04:04:45;;;;;;;2.85;1.80;;;23.40;52.00;;;;;;5100460;28;20023;-48
2022/06/11 04:07:12;;;;;;;1.83;1.52;;;23.40;52.00;;;;;;5081101;28;20390;-51
2022/06/11 04:09:39;;;;;;;2.63;1.63;;;23.40;52.00;;;;;;5098486;28;20012;-48
2022/06/11 04:12:09;;;;;;;2.97;1.70;;;23.40;51.90;;;;;;5097691;28;20008;-47
2022/06/11 04:14:35;;;;;;;3.65;2.05;;;23.40;51.80;;;;;;5098625;28;20008;-50
2022/06/11 04:17:07;;;;;;;3.10;1.80;;;23.40;51.80;;;;;;5096156;28;20374;-50
2022/06/11 04:19:35;;;;;;;2.85;1.60;;;23.40;51.80;;;;;;5097643;28;20019;-50
2022/06/11 04:22:01;;;;;;;2.50;1.50;;;23.40;51.80;;;;;;5097635;28;20547;-47
2022/06/11 04:24:28;;;;;;;2.50;1.80;;;23.40;51.80;;;;;;5078950;28;20020;-51
2022/06/11 04:26:55;;;;;;;3.78;1.73;;;23.40;51.80;;;;;;5095506;28;20019;-47
2022/06/11 04:29:22;;;;;;;2.75;1.70;;;23.40;51.70;;;;;;5093677;28;20020;-48
2022/06/11 04:31:49;;;;;;;2.17;1.50;;;23.40;51.70;;;;;;5093169;28;20016;-49
2022/06/11 04:34:16;;;;;;;3.88;1.77;;;23.40;51.60;;;;;;5094637;28;20048;-50
2022/06/11 04:36:42;;;;;;;2.25;1.60;;;23.40;51.50;;;;;;5094867;28;20091;-41
2022/06/11 04:39:09;;;;;;;2.45;1.88;;;23.40;51.50;;;;;;5093609;28;20015;-47
2022/06/11 04:41:35;;;;;;;3.38;1.55;;;23.40;51.40;;;;;;5095642;28;20015;-43
2022/06/11 04:44:01;;;;;;;2.42;1.80;;;23.40;51.40;;;;;;5096382;28;20067;-45
2022/06/11 04:46:28;;;;;;;2.78;1.60;;;23.40;51.40;;;;;;5097183;28;20012;-47
2022/06/11 04:48:56;;;;;;;4.85;2.00;;;23.40;51.30;;;;;;5101197;28;20013;-41
2022/06/11 04:51:22;;;;;;;3.35;1.73;;;23.40;51.30;;;;;;5100669;28;20470;-42
2022/06/11 04:53:48;;;;;;;3.45;1.50;;;23.40;51.20;;;;;;5101755;28;20080;-41
2022/06/11 04:56:19;;;;;;;2.45;1.50;;;23.40;51.20;;;;;;5101026;28;20004;-42
2022/06/11 04:58:45;;;;;;;1.98;1.40;;;23.40;51.20;;;;;;5101660;28;20459;-46
2022/06/11 05:01:11;;;;;;;2.75;1.40;;;23.40;50.90;;;;;;5085437;28;20033;-43
2022/06/11 05:03:38;;;;;;;2.72;1.50;;;23.40;50.90;;;;;;5103063;28;20095;-42
2022/06/11 05:06:04;;;;;;;2.83;1.60;;;23.50;50.70;;;;;;5104464;28;20035;-43
2022/06/11 05:08:31;;;;;;;3.55;2.00;;;23.50;50.30;;;;;;5104748;28;20052;-44
2022/06/11 05:10:57;;;;;;;1.95;1.50;;;23.60;50.10;;;;;;5105441;28;20017;-48
2022/06/11 05:13:23;;;;;;;2.20;1.60;;;23.70;50.50;;;;;;5103894;28;20032;-46
2022/06/11 05:15:50;;;;;;;3.55;1.70;;;23.70;50.40;;;;;;5105244;28;20035;-50
2022/06/11 05:18:17;;;;;;;3.05;1.35;;;23.80;50.30;;;;;;5103836;28;20012;-46
2022/06/11 05:20:43;;;;;;;2.50;1.52;;;23.90;50.00;;;;;;5102688;28;20020;-46
2022/06/11 05:23:09;;;;;;;2.33;1.40;;;24.00;49.60;;;;;;5100348;28;20143;-45
2022/06/11 05:25:36;;;;;;;2.70;1.45;;;24.00;49.60;;;;;;5102307;28;20024;-46
2022/06/11 05:28:02;;;;;;;2.42;1.58;;;24.00;49.50;;;;;;5101201;28;20027;-48
2022/06/11 05:30:30;;;;;;;2.97;1.60;;;24.10;49.10;;;;;;5101603;28;20540;-43
2022/06/11 05:32:56;;;;;;;2.55;1.30;;;24.10;49.00;;;;;;5100061;28;20020;-45
2022/06/11 05:35:24;;;;;;;2.47;1.30;;;24.00;49.10;;;;;;5102709;28;20016;-43
2022/06/11 05:37:51;;;;;;;2.83;1.60;;;24.10;49.20;;;;;;5101314;28;20020;-44
2022/06/11 05:40:19;;;;;;;2.42;1.40;;;24.10;49.00;;;;;;5100495;28;20019;-42
2022/06/11 05:42:47;;;;;;;2.80;1.40;;;24.10;49.00;;;;;;5100030;28;20024;-43
2022/06/11 05:45:15;;;;;;;3.63;1.55;;;24.10;48.80;;;;;;5099880;28;20031;-46
2022/06/11 05:47:42;;;;;;;2.03;1.30;;;24.10;48.40;;;;;;5099194;28;20024;-49
2022/06/11 05:50:08;;;;;;;3.15;1.60;;;24.20;48.40;;;;;;5098406;28;20046;-47
2022/06/11 05:52:36;;;;;;;3.35;1.50;;;24.10;48.30;;;;;;5099789;28;20028;-45
2022/06/11 05:55:03;;;;;;;2.40;1.20;;;24.10;48.40;;;;;;5100825;28;20008;-47
2022/06/11 05:57:29;;;;;;;2.45;1.33;;;24.10;48.40;;;;;;5099082;28;20262;-47
2022/06/11 06:00:03;;;;;;;3.30;1.38;;;24.10;48.50;;;;;;5082691;28;20378;-42
2022/06/11 06:02:29;;;;;;;1.88;1.30;;;24.20;48.40;;;;;;5102143;28;20015;-45
2022/06/11 06:04:55;;;;;;;3.25;1.30;;;24.20;48.50;;;;;;5101938;28;20053;-45
2022/06/11 06:07:21;;;;;;;3.35;1.45;;;24.20;48.00;;;;;;5102314;28;20471;-43
2022/06/11 06:09:47;;;;;;;2.53;1.38;;;24.40;47.90;;;;;;5101950;28;20051;-47
2022/06/11 06:12:14;;;;;;;3.72;1.45;;;24.40;47.50;;;;;;5100844;28;20103;-45
2022/06/11 06:14:40;;;;;;;3.80;1.65;;;24.50;46.90;;;;;;5100309;28;20016;-46
2022/06/11 06:17:06;;;;;;;2.75;1.40;;;24.60;46.80;;;;;;5101012;28;20559;-45
2022/06/11 06:19:32;;;;;;;4.25;1.42;;;24.50;46.80;;;;;;5101055;28;20024;-45
2022/06/11 06:22:01;;;;;;;3.25;1.40;;;24.50;46.90;;;;;;5101176;28;21550;-46
2022/06/11 06:24:26;;;;;;;3.40;1.48;;;24.50;47.00;;;;;;5121645;28;20027;-46
2022/06/11 06:26:52;;;;;;;3.78;1.40;;;24.40;47.10;;;;;;5119971;28;20026;-48
2022/06/11 06:29:19;;;;;;;2.80;1.83;;;24.40;47.00;;;;;;5123133;28;20016;-44
2022/06/11 06:31:45;;;;;;;3.17;1.58;;;24.40;47.10;;;;;;5123428;28;20041;-49
2022/06/11 06:34:11;;;;;;;3.65;1.88;;;24.40;47.30;;;;;;5121733;28;20080;-49
2022/06/11 06:36:38;;;;;;;3.53;1.75;;;24.40;47.10;;;;;;5124306;28;20043;-49
2022/06/11 06:39:04;;;;;;;3.80;1.50;;;24.40;46.80;;;;;;5123131;28;20028;-43
2022/06/11 06:41:31;;;;;;;5.38;1.88;;;24.40;47.40;;;;;;5122495;28;20060;-47
2022/06/11 06:43:57;;;;;;;3.25;1.55;;;24.40;46.80;;;;;;5121728;28;20023;-46
2022/06/11 06:46:23;;;;;;;2.53;1.55;;;24.40;47.10;;;;;;5107241;28;20097;-48
2022/06/11 06:48:50;;;;;;;3.92;1.38;;;24.40;47.00;;;;;;5123656;28;20039;-50
2022/06/11 06:51:18;;;;;;;3.75;1.48;;;24.30;47.00;;;;;;5124175;28;20046;-48
2022/06/11 06:53:44;;;;;;;3.58;1.40;;;24.30;47.00;;;;;;5123400;28;20028;-44
2022/06/11 06:56:10;;;;;;;3.67;1.75;;;24.20;47.10;;;;;;5124182;28;20016;-48
2022/06/11 06:58:35;;;;;;;4.05;1.50;;;24.20;47.20;;;;;;5122668;28;20020;-45
2022/06/11 07:01:02;;;;;;;3.60;1.33;;;24.20;47.90;;;;;;5121915;28;20019;-48
2022/06/11 07:03:28;;;;;;;4.10;1.63;;;24.20;47.30;;;;;;5121903;28;20463;-49
2022/06/11 07:05:54;;;;;;;4.00;1.40;;;24.30;47.10;;;;;;5122303;28;20039;-45
2022/06/11 07:08:19;;;;;;;3.15;1.65;;;24.30;47.30;;;;;;5122531;28;20020;-47
2022/06/11 07:10:52;;;;;;;3.47;1.55;;;24.40;46.90;;;;;;5120372;28;20486;-48
2022/06/11 07:13:18;;;;;;;4.00;1.60;;;24.50;46.60;;;;;;5120508;28;20497;-45
2022/06/11 07:15:45;;;;;;;5.78;1.60;;;24.50;46.40;;;;;;5119882;28;20008;-45
2022/06/11 07:18:14;;;;;;;4.32;1.73;;;24.60;46.30;;;;;;5120051;28;20022;-49
2022/06/11 07:20:40;;;;;;;4.50;1.77;;;24.60;46.20;;;;;;5119789;28;20023;-50
2022/06/11 07:23:18;;;;;;;3.60;1.52;;;24.60;46.10;;;;;;5084364;28;20433;-48
2022/06/11 07:25:43;;;;;;;4.95;1.80;;;24.90;45.80;;;;;;5099983;28;20081;-45
2022/06/11 07:28:24;;;;;;;5.00;1.92;;;25.10;45.10;;;;;;5117030;28;20016;-46
2022/06/11 07:30:51;;;;;;;4.07;1.45;;;25.50;44.50;;;;;;5119886;28;20012;-42
2022/06/11 07:33:19;;;;;;;4.53;1.88;;;25.60;43.80;;;;;;5119893;28;20072;-47
2022/06/11 07:35:45;;;;;;;3.72;1.50;;;25.70;43.60;;;;;;5122167;28;20042;-45
2022/06/11 07:38:12;;;;;;;3.75;1.67;;;25.80;43.60;;;;;;5103268;28;20466;-41
2022/06/11 07:40:38;;;;;;;4.55;1.52;;;26.00;43.10;;;;;;5122239;28;20012;-41
2022/06/11 07:43:06;;;;;;;4.30;1.60;;;26.20;42.90;;;;;;5122377;28;20023;-40
2022/06/11 07:45:35;;;;;;;3.67;1.38;;;26.30;42.40;;;;;;5118977;28;20094;-40
2022/06/11 07:48:01;;;;;;;2.83;1.23;;;26.30;42.20;;;;;;5100832;28;20535;-40
2022/06/11 07:50:29;;;;;;;4.38;1.83;;;26.30;42.40;;;;;;5119021;28;20019;-43
2022/06/11 07:52:55;;;;;;;3.17;1.45;;;26.30;42.50;;;;;;5117089;28;20055;-41
2022/06/11 07:55:22;;;;;;;4.22;1.55;;;26.20;42.30;;;;;;5117592;28;20018;-40
2022/06/11 07:57:48;;;;;;;4.07;1.40;;;26.30;42.60;;;;;;5118621;28;20019;-47
2022/06/11 08:00:17;;;;;;;3.67;1.40;;;26.40;42.30;;;;;;5117528;28;20020;-47
2022/06/11 08:02:43;;;;;;;3.28;1.40;;;26.60;42.00;;;;;;5118180;28;20016;-40
2022/06/11 08:05:09;;;;;;;3.83;1.40;;;26.70;41.60;;;;;;5118963;28;20023;-45
2022/06/11 08:07:35;;;;;;;3.67;1.52;;;26.90;41.30;;;;;;5118762;28;20059;-46
2022/06/11 08:10:02;;;;;;;4.22;1.77;;;27.10;40.80;;;;;;5100786;28;20054;-44
2022/06/11 08:12:30;;;;;;;4.18;1.60;;;27.30;40.50;;;;;;5119955;28;20035;-48
2022/06/11 08:14:59;;;;;;;4.45;1.65;;;27.30;40.20;;;;;;5119106;28;20015;-48
2022/06/11 08:17:28;;;;;;;3.40;1.40;;;27.30;40.20;;;;;;5120650;28;20024;-46
2022/06/11 08:19:53;;;;;;;5.00;1.70;;;27.20;40.40;;;;;;5118637;28;20035;-44
2022/06/11 08:22:19;;;;;;;3.88;1.50;;;27.20;40.40;;;;;;5117779;28;20040;-45
2022/06/11 08:24:46;;;;;;;4.55;1.58;;;27.10;40.40;;;;;;5116693;28;20093;-47
2022/06/11 08:27:11;;;;;;;4.45;1.75;;;27.00;40.60;;;;;;5119356;28;20095;-48
2022/06/11 08:29:38;;;;;;;3.03;1.42;;;27.00;40.70;;;;;;5117258;28;20015;-47
2022/06/11 08:32:05;;;;;;;4.32;1.90;;;26.90;40.80;;;;;;5117267;28;20016;-45
2022/06/11 08:34:38;;;;;;;4.43;1.67;;;26.80;40.90;;;;;;5116987;28;20115;-48
2022/06/11 08:37:04;;;;;;;3.83;1.60;;;26.80;41.00;;;;;;5117037;28;20489;-46
2022/06/11 08:39:30;;;;;;;3.78;1.40;;;26.80;41.30;;;;;;5117423;28;20019;-47
2022/06/11 08:41:59;;;;;;;3.15;1.40;;;27.00;40.90;;;;;;5117854;28;20071;-45
2022/06/11 08:44:25;;;;;;;5.30;1.73;;;27.20;40.40;;;;;;5118005;28;20068;-46
2022/06/11 08:46:51;;;;;;;3.05;1.42;;;27.40;39.90;;;;;;5116939;28;20091;-46
2022/06/11 08:49:32;;;;;;;5.25;1.58;;;27.60;39.70;;;;;;5114919;28;20024;-44
2022/06/11 08:52:25;;;;;;;4.60;1.70;;;27.80;39.40;;;;;;5115161;28;20020;-43
2022/06/11 08:54:52;;;;;;;5.22;1.38;;;27.90;39.10;;;;;;5109648;28;20040;-43
2022/06/11 08:57:24;;;;;;;4.75;1.92;;;28.00;38.80;;;;;;5115205;28;20096;-41
2022/06/11 08:59:56;;;;;;;4.10;1.42;;;28.10;38.70;;;;;;5114868;28;20024;-45
2022/06/11 09:02:50;;;;;;;3.58;1.40;;;28.10;38.50;;;;;;5115766;28;20035;-45
2022/06/11 09:05:47;;;;;;;3.33;1.67;;;28.20;38.40;;;;;;5117258;28;20016;-46
2022/06/11 09:09:11;;;;;;;3.55;1.42;;;28.30;38.30;;;;;;5116883;28;20086;-44
2022/06/11 09:12:04;;;;;;;3.83;1.50;;;28.20;38.20;;;;;;5035860;28;20120;-43
2022/06/11 09:15:08;;;;;;;3.75;1.40;;;28.10;38.50;;;;;;5054790;28;20021;-45
2022/06/11 09:17:50;;;;;;;5.40;1.67;;;28.00;38.70;;;;;;5002360;28;20042;-44
2022/06/11 09:20:17;;;;;;;4.72;1.58;;;27.90;38.90;;;;;;5056161;28;20019;-48
2022/06/11 09:23:19;;;;;;;4.32;1.60;;;28.00;38.70;;;;;;5056391;28;20196;-49
2022/06/11 09:25:57;;;;;;;4.40;1.60;;;28.10;38.50;;;;;;5056324;28;20049;-44
2022/06/11 09:28:41;;;;;;;3.42;1.38;;;28.20;38.40;;;;;;5056464;28;20025;-49
2022/06/11 09:31:15;;;;;;;4.40;1.45;;;28.20;38.10;;;;;;5054899;28;20158;-42
2022/06/11 09:33:51;;;;;;;3.17;1.50;;;28.30;38.20;;;;;;5039204;28;20026;-44
2022/06/11 09:36:23;;;;;;;3.60;1.40;;;28.40;38.10;;;;;;5057927;28;20028;-45
2022/06/11 09:39:08;;;;;;;3.28;1.42;;;28.40;38.00;;;;;;5059078;28;20115;-44
2022/06/11 09:41:42;;;;;;;4.70;1.50;;;28.40;37.90;;;;;;5071500;28;20031;-46
2022/06/11 09:44:14;;;;;;;4.03;1.30;;;28.50;37.90;;;;;;5122373;28;20022;-46
2022/06/11 09:47:01;;;;;;;4.55;1.50;;;28.50;37.70;;;;;;5121669;28;20028;-46
2022/06/11 09:49:33;;;;;;;5.13;1.63;;;28.50;37.70;;;;;;5122101;28;20477;-44
2022/06/11 09:52:16;;;;;;;5.07;1.80;;;28.50;37.70;;;;;;5121585;28;20059;-48
2022/06/11 09:54:54;;;;;;;3.58;1.55;;;28.50;37.60;;;;;;5122140;28;20034;-44
2022/06/11 09:57:30;;;;;;;4.15;1.33;;;28.50;38.20;;;;;;5121668;28;20037;-47
2022/06/11 10:00:16;;;;;;;3.50;1.40;;;28.50;37.60;;;;;;5120544;28;20016;-42
2022/06/11 10:03:02;;;;;;;4.88;1.65;;;28.50;37.60;;;;;;5120463;28;20478;-46
2022/06/11 10:05:45;;;;;;;3.85;1.60;;;28.50;37.60;;;;;;5119274;28;20022;-45
2022/06/11 10:08:17;;;;;;;3.85;1.38;;;28.50;37.70;;;;;;5118583;28;20492;-45
2022/06/11 10:10:45;;;;;;;4.38;1.50;;;28.50;37.60;;;;;;5117852;28;20012;-48
2022/06/11 10:13:33;;;;;;;4.45;1.70;;;28.50;37.60;;;;;;5118152;28;20050;-43
2022/06/11 10:16:02;;;;;;;5.15;1.40;;;28.50;37.60;;;;;;5117068;28;20023;-42
2022/06/11 10:18:33;;;;;;;4.50;1.85;;;28.50;37.60;;;;;;5117812;28;20011;-49
2022/06/11 10:21:09;;;;;;;4.43;1.75;;;28.50;37.60;;;;;;5118283;28;20099;-46
2022/06/11 10:23:48;;;;;;;4.40;1.42;;;28.50;37.60;;;;;;5118071;27;20044;-42
2022/06/11 10:26:30;;;;;;;4.18;1.40;;;28.40;37.70;;;;;;5117973;28;20020;-42
2022/06/11 10:29:06;;;;;;;3.20;1.42;;;28.40;37.80;;;;;;5118843;28;20038;-42
2022/06/11 10:31:47;;;;;;;3.63;1.52;;;28.30;37.90;;;;;;5119076;28;20019;-42
2022/06/11 10:34:20;;;;;;;3.35;1.40;;;28.30;37.80;;;;;;5120338;28;20027;-43
2022/06/11 10:37:09;;;;;;;4.80;1.50;;;28.30;37.90;;;;;;5119518;28;20012;-43
2022/06/11 10:39:53;;;;;;;4.03;1.65;;;28.20;38.10;;;;;;5120274;28;20039;-44
2022/06/11 10:42:25;;;;;;;4.07;1.52;;;28.10;38.20;;;;;;5119670;28;20018;-44
2022/06/11 10:44:54;;;;;;;3.80;1.40;;;28.00;38.20;;;;;;5120647;28;20004;-47
2022/06/11 10:47:38;;;;;;;3.60;1.40;;;28.00;38.30;;;;;;5118800;28;20027;-44
2022/06/11 10:50:14;;;;;;;3.30;1.40;;;28.00;38.50;;;;;;5119068;28;20038;-47
2022/06/11 10:52:46;;;;;;;4.45;1.63;;;27.90;38.50;;;;;;5117876;28;20027;-48
2022/06/11 10:55:27;;;;;;;2.85;1.35;;;27.90;38.50;;;;;;5117871;28;20008;-45
2022/06/11 10:57:53;;;;;;;3.95;1.48;;;27.90;38.60;;;;;;5100958;28;20065;-47
2022/06/11 11:00:46;;;;;;;3.97;1.60;;;27.80;38.60;;;;;;5116681;28;20470;-47
2022/06/11 11:03:17;;;;;;;4.30;1.60;;;27.80;38.70;;;;;;5114072;28;20039;-43
2022/06/11 11:05:49;;;;;;;4.28;1.45;;;27.80;38.90;;;;;;5115789;28;20011;-43
2022/06/11 11:08:14;;;;;;;4.35;1.40;;;27.70;38.90;;;;;;5117927;28;20023;-42
2022/06/11 11:10:49;;;;;;;3.97;1.50;;;27.60;38.90;;;;;;5119771;28;20115;-43
2022/06/11 11:13:20;;;;;;;5.90;1.40;;;27.60;39.00;;;;;;5119782;28;20020;-47
2022/06/11 11:15:52;;;;;;;3.53;1.45;;;27.60;39.10;;;;;;5102035;28;20037;-48
2022/06/11 11:18:24;;;;;;;2.97;1.23;;;27.60;39.20;;;;;;5119715;28;20085;-45
2022/06/11 11:20:51;;;;;;;3.10;1.20;;;27.50;39.30;;;;;;5118174;28;20492;-42
2022/06/11 11:23:30;;;;;;;5.00;1.60;;;27.40;39.30;;;;;;5119884;28;20044;-47
2022/06/11 11:26:16;;;;;;;3.00;1.38;;;27.40;39.50;;;;;;5120591;28;20046;-45
2022/06/11 11:28:59;;;;;;;5.15;1.50;;;27.30;39.40;;;;;;5103748;28;20020;-47
2022/06/11 11:31:31;;;;;;;3.38;1.27;;;27.30;40.00;;;;;;5120509;28;20462;-49
2022/06/11 11:34:15;;;;;;;3.40;1.30;;;27.30;39.60;;;;;;5101198;28;20024;-49
2022/06/11 11:36:41;;;;;;;3.53;1.35;;;27.20;39.60;;;;;;5099896;28;20012;-46
2022/06/11 11:39:18;;;;;;;3.60;1.35;;;27.20;39.80;;;;;;5116933;28;20374;-48
2022/06/11 11:41:53;;;;;;;4.60;1.40;;;27.10;39.90;;;;;;5117191;28;20039;-42
2022/06/11 11:44:20;;;;;;;3.55;1.70;;;27.10;39.90;;;;;;5116844;28;20012;-47
2022/06/11 11:46:58;;;;;;;3.55;1.45;;;27.10;40.00;;;;;;5118157;28;20044;-50
2022/06/11 11:49:26;;;;;;;3.95;1.63;;;27.00;40.00;;;;;;5118797;28;20015;-46
2022/06/11 11:51:52;;;;;;;3.63;1.40;;;27.00;40.20;;;;;;5101137;28;20015;-47
2022/06/11 11:54:24;;;;;;;2.58;1.17;;;27.00;40.30;;;;;;5118662;28;20161;-46
2022/06/11 11:56:57;;;;;;;3.67;1.60;;;26.90;40.30;;;;;;5116302;28;20008;-46
2022/06/11 11:59:30;;;;;;;4.95;1.67;;;26.90;40.40;;;;;;5116219;28;20462;-46
2022/06/11 12:02:03;;;;;;;5.40;1.67;;;26.90;40.40;;;;;;5100262;28;20541;-48
2022/06/11 12:04:35;;;;;;;4.30;1.38;;;26.80;40.40;;;;;;5117730;28;20089;-51
2022/06/11 12:07:06;;;;;;;3.47;1.50;;;26.80;40.50;;;;;;5116665;28;20054;-49
2022/06/11 12:09:52;;;;;;;2.92;1.40;;;26.80;40.60;;;;;;5118314;28;20016;-47
2022/06/11 12:12:36;;;;;;;5.50;1.65;;;26.80;40.60;;;;;;5117022;28;20004;-49
2022/06/11 12:15:23;;;;;;;2.85;1.30;;;26.70;40.70;;;;;;5117997;28;20073;-49
2022/06/11 12:18:05;;;;;;;4.93;1.60;;;26.70;40.80;;;;;;5119082;28;20098;-47
2022/06/11 12:20:33;;;;;;;3.33;1.40;;;26.70;40.90;;;;;;5119197;28;20106;-48
2022/06/11 12:23:19;;;;;;;4.75;1.67;;;26.70;40.90;;;;;;5118385;28;20130;-50
2022/06/11 12:26:05;;;;;;;3.78;1.50;;;26.60;40.90;;;;;;5115768;28;20020;-46
2022/06/11 12:28:48;;;;;;;4.30;1.42;;;26.60;40.90;;;;;;5114464;28;20016;-50
2022/06/11 12:31:14;;;;;;;4.05;1.50;;;26.60;40.90;;;;;;5115083;28;20047;-42
2022/06/11 12:33:44;;;;;;;4.57;1.77;;;26.60;41.00;;;;;;5116430;28;20031;-46
2022/06/11 12:36:32;;;;;;;3.03;1.30;;;26.60;41.00;;;;;;5116317;28;20016;-44
2022/06/11 12:39:17;;;;;;;4.13;1.40;;;26.60;41.00;;;;;;5117047;28;20022;-45
2022/06/11 12:42:01;;;;;;;3.67;1.35;;;26.60;41.00;;;;;;5118523;28;20016;-46
2022/06/11 12:44:33;;;;;;;4.63;1.85;;;26.60;41.00;;;;;;5117974;28;20049;-42
2022/06/11 12:47:37;;;;;;;4.72;1.67;;;26.60;41.00;;;;;;5116109;28;20019;-44
2022/06/11 12:50:22;;;;;;;4.35;1.33;;;26.60;41.00;;;;;;5102292;28;20039;-42
2022/06/11 12:53:16;;;;;;;5.00;1.58;;;26.60;41.10;;;;;;5115208;28;20497;-45
2022/06/11 12:56:04;;;;;;;3.70;1.55;;;26.60;41.00;;;;;;5113770;28;20046;-47
2022/06/11 12:58:39;;;;;;;5.10;1.60;;;26.60;41.00;;;;;;5113894;28;20023;-47
2022/06/11 13:01:12;;;;;;;2.97;1.38;;;26.60;41.10;;;;;;5114037;28;20109;-46
2022/06/11 13:04:00;;;;;;;4.03;1.58;;;26.60;41.10;;;;;;5114548;28;20020;-46
2022/06/11 13:06:40;;;;;;;3.38;1.40;;;26.50;41.00;;;;;;5114156;28;20032;-45
2022/06/11 13:09:25;;;;;;;2.65;1.17;;;26.50;41.10;;;;;;5115982;28;20060;-46
2022/06/11 13:12:19;;;;;;;4.45;1.80;;;26.50;41.10;;;;;;5116775;28;20117;-45
2022/06/11 13:14:50;;;;;;;5.05;1.50;;;26.50;41.20;;;;;;5118331;28;20053;-43
2022/06/11 13:17:30;;;;;;;4.15;1.50;;;26.40;41.20;;;;;;5118386;28;20463;-46